Time;durP1;ratioP1;P1;durP2;ratioP2;P2;SDS_P1;SDS_P2;PMS_P1;PMS_P2;Temp;Humidity;BMP_temperature;BMP_pressure;BME280_temperature;BME280_humidity;BME280_pressure;Samples;Min_cycle;Max_cycle;Signal;HPM_P1;HPM_P2
2023/01/10 00:00:36;;;;;;;2.40;1.50;;;;;;;1.58;100.00;93574.41;5051151;28;20048;-62
2023/01/10 00:03:08;;;;;;;2.80;1.35;;;;;;;1.51;100.00;93577.00;5050473;28;20485;-61
2023/01/10 00:05:36;;;;;;;3.35;1.67;;;;;;;1.53;100.00;93586.34;5051109;28;20425;-63
2023/01/10 00:08:04;;;;;;;2.20;1.02;;;;;;;1.59;100.00;93581.41;5050356;28;20047;-61
2023/01/10 00:10:31;;;;;;;2.80;1.30;;;;;;;1.66;100.00;93589.59;5050279;28;20057;-62
2023/01/10 00:15:44;;;;;;;3.05;1.50;;;;;;;1.66;100.00;93589.59;5049787;28;21971;-62
2023/01/10 00:18:11;;;;;;;4.15;1.70;;;;;;;1.66;100.00;93595.00;5032215;28;20056;-62
2023/01/10 00:20:38;;;;;;;3.17;1.48;;;;;;;1.57;100.00;93598.00;5050331;28;20049;-63
2023/01/10 00:23:04;;;;;;;3.33;1.80;;;;;;;1.66;100.00;93602.34;5050006;28;20412;-62
2023/01/10 00:25:35;;;;;;;3.00;1.40;;;;;;;1.74;100.00;93610.19;5050564;28;20049;-63
2023/01/10 00:28:20;;;;;;;2.70;1.42;;;;;;;1.68;100.00;93614.34;5049853;28;20056;-62
2023/01/10 00:31:10;;;;;;;3.10;1.47;;;;;;;1.84;100.00;93616.09;5048968;28;20877;-62
2023/01/10 00:33:37;;;;;;;2.50;1.20;;;;;;;1.73;100.00;93624.06;5048665;28;20057;-61
2023/01/10 00:36:06;;;;;;;2.67;1.20;;;;;;;1.50;100.00;93626.84;5047396;28;20059;-60
2023/01/10 00:38:34;;;;;;;2.47;1.30;;;;;;;1.62;100.00;93631.28;5049396;28;20094;-61
2023/01/10 00:41:02;;;;;;;2.95;1.50;;;;;;;1.69;100.00;93636.75;5049611;28;20059;-61
2023/01/10 00:46:14;;;;;;;2.25;1.00;;;;;;;1.74;100.00;93649.97;5048956;28;20045;-61
2023/01/10 00:48:41;;;;;;;2.55;1.23;;;;;;;1.38;100.00;93652.16;5049689;28;20400;-61
2023/01/10 00:51:08;;;;;;;2.28;1.02;;;;;;;1.58;100.00;93664.44;5031009;28;20049;-61
2023/01/10 00:53:35;;;;;;;2.88;1.20;;;;;;;1.27;100.00;93668.25;5049302;28;20063;-61
2023/01/10 00:56:01;;;;;;;2.50;1.20;;;;;;;1.25;100.00;93664.31;5048190;28;20041;-61
2023/01/10 00:58:28;;;;;;;13.57;6.00;;;;;;;1.53;100.00;93682.91;5048419;28;20637;-61
2023/01/10 01:00:55;;;;;;;2.80;1.40;;;;;;;1.50;100.00;93684.41;5047989;28;20045;-61
2023/01/10 01:03:22;;;;;;;3.47;1.33;;;;;;;1.64;100.00;93699.31;5048689;28;20056;-61
2023/01/10 01:05:49;;;;;;;4.38;1.40;;;;;;;1.66;100.00;93703.19;5049034;28;20412;-62
2023/01/10 01:08:17;;;;;;;2.30;0.90;;;;;;;1.67;100.00;93709.38;5048516;28;20057;-61
2023/01/10 01:10:45;;;;;;;2.42;0.90;;;;;;;1.72;100.00;93711.78;5052725;28;20475;-61
2023/01/10 01:13:18;;;;;;;2.60;1.27;;;;;;;1.54;100.00;93708.81;5052217;28;20129;-62
2023/01/10 01:15:45;;;;;;;1.92;0.70;;;;;;;1.50;100.00;93719.56;5052684;28;20051;-61
2023/01/10 01:18:13;;;;;;;1.88;0.80;;;;;;;1.65;100.00;93720.59;5052206;28;20622;-61
2023/01/10 01:20:41;;;;;;;1.70;0.80;;;;;;;1.57;100.00;93721.59;5052684;28;20695;-61
2023/01/10 01:23:08;;;;;;;2.40;0.80;;;;;;;1.44;100.00;93726.44;5051770;28;20053;-61
2023/01/10 01:25:35;;;;;;;1.65;0.70;;;;;;;1.39;100.00;93735.63;5052159;28;20048;-61
2023/01/10 01:28:02;;;;;;;4.80;1.43;;;;;;;1.48;100.00;93723.78;5015328;28;1087550;-62
2023/01/10 01:30:28;;;;;;;3.25;0.90;;;;;;;1.37;100.00;93729.03;5051769;28;20043;-61
2023/01/10 01:32:55;;;;;;;3.45;1.35;;;;;;;1.24;100.00;93741.94;5053680;28;20048;-61
2023/01/10 01:35:23;;;;;;;3.67;1.00;;;;;;;1.12;100.00;93751.00;5052629;28;20063;-61
2023/01/10 01:37:50;;;;;;;2.40;1.20;;;;;;;1.25;100.00;93756.22;5053680;28;20045;-61
2023/01/10 01:40:19;;;;;;;4.05;0.98;;;;;;;1.26;100.00;93753.16;5053006;28;20422;-62
2023/01/10 01:42:47;;;;;;;2.40;1.00;;;;;;;1.11;100.00;93762.97;5053663;28;20405;-62
2023/01/10 01:45:13;;;;;;;2.63;1.20;;;;;;;0.96;100.00;93761.13;5052941;28;20370;-61
2023/01/10 01:47:44;;;;;;;4.57;1.53;;;;;;;1.00;100.00;93773.56;5035394;28;20067;-62
2023/01/10 01:50:25;;;;;;;2.83;1.70;;;;;;;1.07;100.00;93781.03;5052993;28;20053;-61
2023/01/10 01:52:56;;;;;;;3.20;1.13;;;;;;;1.21;100.00;93785.91;5052923;28;20098;-61
2023/01/10 01:55:25;;;;;;;3.38;1.17;;;;;;;1.36;100.00;93782.31;5052584;28;20082;-62
2023/01/10 01:57:54;;;;;;;2.10;1.02;;;;;;;1.51;100.00;93777.94;5052959;28;20047;-62
2023/01/10 02:00:21;;;;;;;2.20;0.80;;;;;;;1.32;100.00;93772.56;5052746;28;20105;-62
2023/01/10 02:02:51;;;;;;;3.33;1.00;;;;;;;1.25;100.00;93780.56;5053012;28;20048;-62
2023/01/10 02:05:31;;;;;;;3.35;1.10;;;;;;;1.25;100.00;93789.47;5052299;28;20316;-61
2023/01/10 02:08:00;;;;;;;3.05;1.10;;;;;;;1.41;100.00;93800.16;5052499;28;20056;-61
2023/01/10 02:10:30;;;;;;;3.35;1.10;;;;;;;1.34;100.00;93803.50;5052755;28;20567;-61
2023/01/10 02:13:02;;;;;;;3.07;1.10;;;;;;;1.46;100.00;93797.16;5052538;28;20053;-61
2023/01/10 02:15:29;;;;;;;3.15;1.40;;;;;;;1.45;100.00;93805.63;5051767;28;20792;-61
2023/01/10 02:17:58;;;;;;;3.08;1.10;;;;;;;1.45;100.00;93808.31;5052687;28;20106;-61
2023/01/10 02:20:27;;;;;;;3.08;1.30;;;;;;;1.19;100.00;93815.22;5052164;28;20078;-61
2023/01/10 02:23:42;;;;;;;3.40;1.30;;;;;;;1.26;100.00;93818.03;5052806;28;20061;-61
2023/01/10 02:26:08;;;;;;;2.97;1.10;;;;;;;1.26;100.00;93830.78;5051159;28;20056;-62
2023/01/10 02:29:12;;;;;;;3.45;1.10;;;;;;;1.46;100.00;93839.66;5052831;28;20045;-61
2023/01/10 02:32:04;;;;;;;2.97;1.27;;;;;;;1.33;100.00;93836.34;5033908;28;20616;-61
2023/01/10 02:34:47;;;;;;;3.00;1.10;;;;;;;1.30;100.00;93843.22;5051651;28;20674;-62
2023/01/10 02:37:35;;;;;;;2.40;1.25;;;;;;;1.14;100.00;93845.25;5052504;28;20045;-61
2023/01/10 02:40:29;;;;;;;2.83;1.10;;;;;;;1.30;100.00;93853.25;5052287;28;20443;-61
2023/01/10 02:43:05;;;;;;;2.30;1.10;;;;;;;1.14;100.00;93850.66;5051711;28;20075;-60
2023/01/10 02:46:04;;;;;;;3.40;1.77;;;;;;;1.32;100.00;93867.19;5051641;28;20067;-61
2023/01/10 02:48:31;;;;;;;3.30;1.00;;;;;;;1.39;100.00;93870.81;5038496;28;21594;-61
2023/01/10 02:51:10;;;;;;;2.70;0.73;;;;;;;1.35;100.00;93877.31;5052263;28;20067;-61
2023/01/10 02:53:43;;;;;;;1.80;0.70;;;;;;;1.62;100.00;93880.13;5051168;28;20159;-62
2023/01/10 02:56:28;;;;;;;1.52;0.60;;;;;;;1.34;100.00;93881.16;5033951;28;20428;-62
2023/01/10 02:59:32;;;;;;;1.60;0.80;;;;;;;1.50;100.00;93876.41;5052215;28;20049;-61
2023/01/10 03:02:09;;;;;;;1.70;0.80;;;;;;;1.25;100.00;93888.69;5051188;28;20421;-61
2023/01/10 03:04:36;;;;;;;1.77;0.85;;;;;;;1.45;100.00;93890.25;5051145;28;20589;-61
2023/01/10 03:07:32;;;;;;;2.00;0.70;;;;;;;1.38;100.00;93899.00;5032491;28;20397;-61
2023/01/10 03:10:49;;;;;;;2.75;0.60;;;;;;;1.43;100.00;93895.25;5041057;28;20067;-62
2023/01/10 03:13:25;;;;;;;3.17;1.00;;;;;;;1.10;100.00;93903.84;5009817;28;20759;-62
2023/01/10 03:15:54;;;;;;;1.95;0.60;;;;;;;1.34;100.00;93919.00;5051850;28;20113;-61
2023/01/10 03:18:27;;;;;;;2.05;0.80;;;;;;;1.09;100.00;93930.09;5051265;28;20075;-61
2023/01/10 03:20:56;;;;;;;1.73;0.73;;;;;;;1.27;100.00;93933.16;5051777;28;20103;-62
2023/01/10 03:23:24;;;;;;;1.60;0.60;;;;;;;1.30;100.00;93945.19;5051360;28;20063;-62
2023/01/10 03:25:54;;;;;;;2.38;0.90;;;;;;;1.36;100.00;93949.16;5051489;28;20041;-61
2023/01/10 03:28:32;;;;;;;2.42;0.98;;;;;;;1.53;100.00;93956.06;5051311;28;20051;-62
2023/01/10 03:31:11;;;;;;;2.53;0.85;;;;;;;1.45;100.00;93959.75;5051113;28;20045;-61
2023/01/10 03:33:39;;;;;;;2.10;0.90;;;;;;;1.26;100.00;93955.91;5050696;28;20700;-62
2023/01/10 03:36:30;;;;;;;2.38;0.90;;;;;;;1.39;100.00;93970.09;5050965;28;20063;-61
2023/01/10 03:39:11;;;;;;;3.13;1.33;;;;;;;1.36;100.00;93968.88;5034402;28;20052;-61
2023/01/10 03:44:42;;;;;;;3.75;1.20;;;;;;;1.22;100.00;93976.69;5034585;28;20159;-62
2023/01/10 03:45:28;;;;;;;3.58;1.15;;;;;;;1.29;100.00;93978.75;4956845;28;20596;-61
2023/01/10 03:47:58;;;;;;;6.53;1.50;;;;;;;1.29;100.00;93984.16;5050961;28;20045;-61
2023/01/10 03:50:26;;;;;;;3.63;2.20;;;;;;;1.18;100.00;93997.44;5050627;28;20040;-61
2023/01/10 03:52:53;;;;;;;3.75;1.50;;;;;;;1.19;100.00;93996.34;5050903;28;20404;-61
2023/01/10 03:55:23;;;;;;;4.88;2.30;;;;;;;1.19;100.00;94007.16;5050075;28;20519;-61
2023/01/10 03:57:50;;;;;;;2.65;1.25;;;;;;;1.19;100.00;94020.66;5050779;28;20052;-61
2023/01/10 04:00:17;;;;;;;4.07;1.77;;;;;;;1.15;100.00;94023.28;5032898;28;20113;-61
2023/01/10 04:02:44;;;;;;;4.68;1.40;;;;;;;1.27;100.00;94016.16;5049774;28;20106;-62
2023/01/10 04:05:11;;;;;;;4.00;1.65;;;;;;;1.07;100.00;94016.16;5049568;28;20051;-62
2023/01/10 04:07:38;;;;;;;7.72;1.30;;;;;;;1.20;100.00;94023.00;5049826;28;20046;-62
2023/01/10 04:10:06;;;;;;;5.55;1.70;;;;;;;1.30;100.00;94034.41;5050174;28;20048;-61
2023/01/10 04:12:32;;;;;;;4.67;1.50;;;;;;;1.49;100.00;94036.34;5050855;28;20366;-61
2023/01/10 04:15:00;;;;;;;6.80;1.50;;;;;;;1.55;100.00;94040.31;5049463;28;20047;-61
2023/01/10 04:17:27;;;;;;;5.82;1.50;;;;;;;1.39;100.00;94030.38;5050061;28;20045;-62
2023/01/10 04:19:53;;;;;;;5.68;1.58;;;;;;;1.32;100.00;94037.53;5050475;28;20397;-62
2023/01/10 04:22:20;;;;;;;7.97;2.00;;;;;;;1.24;100.00;94042.00;5050188;28;20049;-62
2023/01/10 04:24:50;;;;;;;3.80;1.63;;;;;;;1.24;100.00;94042.00;5050305;28;20382;-62
2023/01/10 04:27:17;;;;;;;5.68;1.55;;;;;;;1.25;100.00;94056.28;5049910;28;20045;-61
2023/01/10 04:29:44;;;;;;;6.45;2.10;;;;;;;1.15;100.00;94055.72;5050517;28;20045;-61
2023/01/10 04:32:11;;;;;;;7.65;1.80;;;;;;;1.15;100.00;94061.13;5050028;28;20420;-61
2023/01/10 04:34:38;;;;;;;4.85;1.80;;;;;;;1.13;100.00;94079.59;5050259;28;20102;-62
2023/01/10 04:37:05;;;;;;;6.97;1.40;;;;;;;1.25;100.00;94092.25;5032207;28;20443;-62
2023/01/10 04:39:31;;;;;;;4.93;1.55;;;;;;;1.00;100.00;94097.06;5050206;28;20637;-62
2023/01/10 04:41:58;;;;;;;7.97;1.55;;;;;;;0.96;100.00;94090.78;5032461;28;20041;-62
2023/01/10 04:44:25;;;;;;;6.28;1.60;;;;;;;1.09;100.00;94099.59;5049726;28;20568;-62
2023/01/10 04:46:51;;;;;;;8.63;2.00;;;;;;;1.22;100.00;94105.66;5049597;28;20055;-62
2023/01/10 04:49:18;;;;;;;8.27;1.60;;;;;;;1.36;100.00;94101.34;5049725;28;20610;-63
2023/01/10 04:51:45;;;;;;;6.85;1.45;;;;;;;1.33;100.00;94117.53;5050172;28;20049;-63
2023/01/10 04:54:11;;;;;;;7.47;2.17;;;;;;;1.35;100.00;94124.13;5049466;28;20451;-63
2023/01/10 04:56:38;;;;;;;12.25;1.90;;;;;;;1.20;100.00;94120.31;5049952;28;20122;-63
2023/01/10 04:59:05;;;;;;;7.03;1.75;;;;;;;1.28;100.00;94117.78;5031759;28;20049;-61
2023/01/10 05:01:34;;;;;;;8.47;2.00;;;;;;;1.40;100.00;94123.06;5050054;28;20493;-62
2023/01/10 05:04:02;;;;;;;10.50;2.05;;;;;;;1.35;100.00;94115.25;5049995;28;20474;-62
2023/01/10 05:06:29;;;;;;;8.20;2.08;;;;;;;1.20;100.00;94123.00;5047916;28;20917;-62
2023/01/10 05:08:56;;;;;;;6.57;2.13;;;;;;;1.38;100.00;94130.75;5049999;28;20110;-63
2023/01/10 05:11:23;;;;;;;6.40;2.50;;;;;;;1.38;100.00;94128.81;5031859;28;20042;-63
2023/01/10 05:13:50;;;;;;;5.77;2.30;;;;;;;1.47;100.00;94131.34;5049897;28;20501;-62
2023/01/10 05:16:17;;;;;;;7.45;3.22;;;;;;;1.53;100.00;94132.66;5048254;28;20114;-63
2023/01/10 05:18:44;;;;;;;15.10;5.88;;;;;;;1.45;100.00;94132.81;5050201;28;20051;-62
2023/01/10 05:21:12;;;;;;;19.13;7.30;;;;;;;1.25;100.00;94140.91;5049169;28;20045;-62
2023/01/10 05:23:39;;;;;;;15.27;6.55;;;;;;;1.17;100.00;94144.56;5049775;28;20109;-63
2023/01/10 05:26:12;;;;;;;8.30;2.90;;;;;;;1.15;100.00;94155.72;5047789;28;20450;-62
2023/01/10 05:28:39;;;;;;;5.50;2.20;;;;;;;1.02;100.00;94156.94;5049919;28;20044;-62
2023/01/10 05:31:08;;;;;;;10.00;2.30;;;;;;;1.11;100.00;94157.56;5048971;28;20049;-60
2023/01/10 05:33:35;;;;;;;5.15;1.92;;;;;;;1.23;100.00;94164.81;5049753;28;20049;-60
2023/01/10 05:36:04;;;;;;;11.35;3.33;;;;;;;1.00;100.00;94176.19;5049133;28;20059;-62
2023/01/10 05:38:32;;;;;;;9.50;3.93;;;;;;;1.02;100.00;94175.84;5048931;28;20436;-62
2023/01/10 05:40:59;;;;;;;15.07;6.07;;;;;;;1.03;100.00;94188.25;5031583;28;20052;-62
2023/01/10 05:43:26;;;;;;;8.75;3.22;;;;;;;1.08;100.00;94173.69;5031124;28;20587;-63
2023/01/10 05:45:53;;;;;;;8.40;2.90;;;;;;;1.08;100.00;94187.19;5049555;28;20049;-62
2023/01/10 05:48:20;;;;;;;5.93;2.17;;;;;;;1.12;100.00;94190.78;5048582;28;20037;-63
2023/01/10 05:50:48;;;;;;;6.73;2.60;;;;;;;1.12;100.00;94198.88;5049709;28;20083;-62
2023/01/10 05:53:16;;;;;;;15.05;5.93;;;;;;;1.08;100.00;94192.59;5048864;28;20413;-62
2023/01/10 05:55:43;;;;;;;35.20;15.27;;;;;;;1.01;100.00;94195.91;5051444;28;20052;-62
2023/01/10 05:58:10;;;;;;;8.82;3.20;;;;;;;0.98;100.00;94207.41;5052518;28;20485;-62
2023/01/10 06:00:38;;;;;;;8.20;3.58;;;;;;;1.08;100.00;94212.31;5053206;28;20155;-62
2023/01/10 06:03:05;;;;;;;9.10;3.20;;;;;;;1.06;100.00;94211.88;5052183;28;20053;-62
2023/01/10 06:05:32;;;;;;;18.42;7.07;;;;;;;0.97;100.00;94212.03;5052028;28;20084;-63
2023/01/10 06:07:58;;;;;;;43.45;17.27;;;;;;;1.00;100.00;94218.66;5052847;28;20055;-63
2023/01/10 06:10:25;;;;;;;10.35;4.30;;;;;;;1.00;100.00;94224.06;5052579;28;20063;-62
2023/01/10 06:12:53;;;;;;;4.65;2.25;;;;;;;1.11;100.00;94221.66;5052479;28;20052;-62
2023/01/10 06:15:20;;;;;;;8.73;2.90;;;;;;;1.07;100.00;94224.25;5034522;28;20049;-62
2023/01/10 06:17:46;;;;;;;5.55;2.60;;;;;;;1.10;100.00;94230.88;5052711;28;20050;-63
2023/01/10 06:20:13;;;;;;;6.07;2.20;;;;;;;1.08;100.00;94233.94;5052198;28;20420;-62
2023/01/10 06:22:41;;;;;;;7.53;2.17;;;;;;;0.97;100.00;94239.06;5052263;28;20722;-63
2023/01/10 06:25:12;;;;;;;9.10;4.15;;;;;;;1.02;100.00;94246.13;5052148;28;20041;-63
2023/01/10 06:27:42;;;;;;;5.90;2.97;;;;;;;0.89;100.00;94242.72;5052545;28;20041;-62
2023/01/10 06:30:11;;;;;;;13.27;6.13;;;;;;;0.85;100.00;94255.34;5034057;28;20049;-61
2023/01/10 06:32:39;;;;;;;11.63;4.20;;;;;;;0.89;100.00;94260.84;5052027;28;20043;-62
2023/01/10 06:35:06;;;;;;;53.20;15.32;;;;;;;0.84;100.00;94263.78;5051438;28;20071;-62
2023/01/10 06:37:33;;;;;;;23.10;6.75;;;;;;;0.83;100.00;94259.53;5052409;28;20041;-62
2023/01/10 06:39:59;;;;;;;32.97;9.87;;;;;;;0.89;100.00;94274.34;5052368;28;20053;-62
2023/01/10 06:42:26;;;;;;;32.25;12.38;;;;;;;0.82;100.00;94277.63;5051946;28;20049;-62
2023/01/10 06:44:53;;;;;;;23.00;11.07;;;;;;;0.70;100.00;94270.34;5052004;28;20529;-62
2023/01/10 06:47:20;;;;;;;19.10;10.27;;;;;;;0.71;100.00;94276.56;5051552;28;20340;-62
2023/01/10 06:49:46;;;;;;;19.45;8.10;;;;;;;0.64;100.00;94285.25;5052203;28;20056;-63
2023/01/10 06:52:13;;;;;;;33.20;13.17;;;;;;;0.66;100.00;94291.09;5033817;28;20055;-62
2023/01/10 06:54:40;;;;;;;27.48;10.00;;;;;;;0.72;100.00;94291.63;5052237;28;20053;-63
2023/01/10 06:57:07;;;;;;;13.25;5.45;;;;;;;0.76;100.00;94301.41;5051517;28;20075;-61
2023/01/10 06:59:34;;;;;;;13.77;5.57;;;;;;;0.76;100.00;94306.03;5052141;28;20041;-62
2023/01/10 07:02:01;;;;;;;10.70;3.75;;;;;;;0.76;100.00;94314.13;5051960;28;20045;-62
2023/01/10 07:04:28;;;;;;;6.93;2.53;;;;;;;0.81;100.00;94319.31;5051110;28;20041;-62
2023/01/10 07:06:55;;;;;;;11.75;3.45;;;;;;;0.93;100.00;94315.78;5050690;28;20456;-62
2023/01/10 07:09:21;;;;;;;7.90;2.70;;;;;;;0.96;100.00;94331.28;5051410;28;20033;-62
2023/01/10 07:11:48;;;;;;;6.82;1.90;;;;;;;1.01;100.00;94341.84;5049102;28;20041;-62
2023/01/10 07:14:15;;;;;;;32.20;14.25;;;;;;;0.95;100.00;94345.94;5026211;28;20484;-62
2023/01/10 07:16:42;;;;;;;15.57;4.83;;;;;;;0.82;100.00;94349.78;5030803;28;20037;-62
2023/01/10 07:19:08;;;;;;;14.35;4.85;;;;;;;0.94;100.00;94355.94;5043719;28;20049;-63
2023/01/10 07:21:35;;;;;;;27.67;12.05;;;;;;;0.75;100.00;94358.50;5051704;28;20382;-63
2023/01/10 07:24:02;;;;;;;70.45;30.10;;;;;;;0.68;100.00;94355.56;5051454;28;20435;-63
2023/01/10 07:26:29;;;;;;;9.23;3.67;;;;;;;0.73;100.00;94342.63;5050190;28;20790;-60
2023/01/10 07:28:56;;;;;;;4.80;1.83;;;;;;;0.69;100.00;94336.34;5033878;28;20052;-60
2023/01/10 07:31:23;;;;;;;9.00;2.40;;;;;;;0.66;100.00;94331.59;5051307;28;20049;-64
2023/01/10 07:33:51;;;;;;;7.43;3.83;;;;;;;0.63;100.00;94339.63;5051288;28;20041;-63
2023/01/10 07:36:18;;;;;;;7.93;2.25;;;;;;;0.64;100.00;94347.34;5050954;28;20488;-63
2023/01/10 07:38:45;;;;;;;7.35;3.38;;;;;;;0.69;100.00;94347.13;5051509;28;20041;-63
2023/01/10 07:41:12;;;;;;;7.37;2.60;;;;;;;0.79;100.00;94356.69;5050610;28;20049;-63
2023/01/10 07:43:39;;;;;;;6.25;2.45;;;;;;;1.02;100.00;94367.75;5050706;28;20056;-63
2023/01/10 07:46:08;;;;;;;6.57;2.42;;;;;;;1.09;100.00;94373.34;5050535;28;20049;-63
2023/01/10 07:48:35;;;;;;;11.05;3.38;;;;;;;1.10;100.00;94385.72;5050917;28;20040;-62
2023/01/10 07:51:04;;;;;;;8.65;3.88;;;;;;;1.08;100.00;94385.28;5051383;28;20071;-63
2023/01/10 07:53:30;;;;;;;9.03;3.50;;;;;;;0.99;100.00;94390.06;5050045;28;21747;-63
2023/01/10 07:55:58;;;;;;;9.00;3.55;;;;;;;0.78;100.00;94401.03;5050533;28;20045;-63
2023/01/10 07:58:26;;;;;;;11.00;4.20;;;;;;;0.75;100.00;94401.72;5050534;28;20044;-63
2023/01/10 08:01:00;;;;;;;8.27;3.90;;;;;;;0.85;100.00;94397.75;5050947;28;20459;-63
2023/01/10 08:03:28;;;;;;;9.50;3.47;;;;;;;0.82;100.00;94404.63;5050425;28;20550;-62
2023/01/10 08:06:05;;;;;;;9.53;3.93;;;;;;;0.95;100.00;94400.75;5050659;28;20040;-63
2023/01/10 08:08:33;;;;;;;10.05;3.97;;;;;;;0.91;100.00;94388.28;5050016;28;20875;-63
2023/01/10 08:11:01;;;;;;;8.73;3.60;;;;;;;1.00;100.00;94387.00;5050135;28;20466;-63
2023/01/10 08:13:29;;;;;;;10.60;2.95;;;;;;;1.17;100.00;94388.63;5050266;28;20402;-63
2023/01/10 08:15:56;;;;;;;7.65;3.45;;;;;;;1.20;100.00;94393.34;5050675;28;20049;-62
2023/01/10 08:18:24;;;;;;;7.13;2.97;;;;;;;1.39;100.00;94392.72;5049808;28;20124;-62
2023/01/10 08:20:52;;;;;;;9.32;3.10;;;;;;;1.57;100.00;94386.97;5050456;28;20489;-63
2023/01/10 08:23:19;;;;;;;9.40;3.38;;;;;;;1.76;100.00;94397.16;5050201;28;20044;-62
2023/01/10 08:25:47;;;;;;;10.45;3.45;;;;;;;1.85;100.00;94399.69;5050264;28;20036;-63
2023/01/10 08:28:13;;;;;;;7.25;2.85;;;;;;;1.97;100.00;94408.53;5049776;28;20053;-63
2023/01/10 08:30:40;;;;;;;7.33;3.73;;;;;;;1.97;100.00;94410.41;5050362;28;20443;-63
2023/01/10 08:33:08;;;;;;;13.82;4.22;;;;;;;1.88;100.00;94413.31;5048713;28;20052;-63
2023/01/10 08:35:42;;;;;;;5.18;2.13;;;;;;;1.79;100.00;94418.88;5032680;28;20056;-63
2023/01/10 08:38:10;;;;;;;8.32;2.65;;;;;;;1.77;100.00;94431.97;5049505;28;20044;-63
2023/01/10 08:40:37;;;;;;;9.10;3.20;;;;;;;1.96;100.00;94425.88;5050562;28;20420;-63
2023/01/10 08:43:11;;;;;;;5.13;2.50;;;;;;;2.01;100.00;94427.53;5050011;28;20056;-63
2023/01/10 08:45:38;;;;;;;10.00;3.85;;;;;;;1.96;100.00;94446.75;5032095;28;20049;-63
2023/01/10 08:48:08;;;;;;;8.40;2.88;;;;;;;2.08;100.00;94451.31;5049851;28;20090;-63
2023/01/10 08:50:35;;;;;;;6.18;2.90;;;;;;;2.08;100.00;94443.19;5049520;28;20489;-63
2023/01/10 08:53:02;;;;;;;6.93;2.45;;;;;;;2.08;100.00;94449.38;5050275;28;20052;-63
2023/01/10 08:55:30;;;;;;;6.23;1.97;;;;;;;2.13;100.00;94461.88;5049066;28;20177;-63
2023/01/10 08:58:01;;;;;;;5.50;2.17;;;;;;;2.15;100.00;94459.59;5049944;28;20055;-63
2023/01/10 09:00:28;;;;;;;6.65;3.10;;;;;;;2.20;100.00;94462.84;5049502;28;20094;-64
2023/01/10 09:02:55;;;;;;;7.15;2.70;;;;;;;2.48;100.00;94470.13;5049954;28;20041;-63
2023/01/10 09:05:22;;;;;;;8.07;3.00;;;;;;;2.29;100.00;94476.22;5049505;28;20063;-63
2023/01/10 09:07:58;;;;;;;7.37;2.27;;;;;;;2.18;100.00;94475.94;5037602;28;20053;-63
2023/01/10 09:10:27;;;;;;;7.70;2.83;;;;;;;2.07;100.00;94483.00;5049393;28;20049;-63
2023/01/10 09:12:54;;;;;;;9.10;2.80;;;;;;;1.87;100.00;94476.69;5049996;28;20045;-63
2023/01/10 09:15:23;;;;;;;7.05;2.53;;;;;;;1.96;100.00;94481.94;5049374;28;20076;-63
2023/01/10 09:17:55;;;;;;;6.05;2.67;;;;;;;2.03;100.00;94486.75;5049739;28;20041;-63
2023/01/10 09:20:24;;;;;;;9.47;3.47;;;;;;;2.11;100.00;94494.72;5049484;28;20052;-61
2023/01/10 09:22:51;;;;;;;7.35;2.50;;;;;;;2.33;100.00;94490.63;5050041;28;20052;-62
2023/01/10 09:25:18;;;;;;;8.60;3.47;;;;;;;2.24;100.00;94489.25;5049214;28;20099;-61
2023/01/10 09:27:44;;;;;;;7.68;2.70;;;;;;;2.23;100.00;94488.44;5049536;28;20048;-61
2023/01/10 09:30:12;;;;;;;6.45;2.40;;;;;;;2.11;100.00;94488.50;5051025;28;20412;-61
2023/01/10 09:32:39;;;;;;;7.40;3.30;;;;;;;2.13;100.00;94483.53;5053643;28;20455;-62
2023/01/10 09:35:06;;;;;;;5.13;2.15;;;;;;;2.15;100.00;94481.25;5053062;28;20044;-62
2023/01/10 09:37:33;;;;;;;6.72;2.45;;;;;;;2.44;100.00;94479.28;5053449;28;20045;-62
2023/01/10 09:40:00;;;;;;;6.50;1.80;;;;;;;2.54;100.00;94490.38;5053763;28;20053;-62
2023/01/10 09:42:56;;;;;;;8.10;2.08;;;;;;;2.47;100.00;94498.31;5053131;28;20102;-62
2023/01/10 09:45:30;;;;;;;5.07;2.10;;;;;;;2.47;100.00;94502.97;5039976;28;20045;-62
2023/01/10 09:48:18;;;;;;;6.45;2.70;;;;;;;2.72;100.00;94509.78;5053366;28;20063;-62
2023/01/10 09:51:12;;;;;;;5.95;2.55;;;;;;;6.09;94.36;94511.44;5051191;28;20105;-62
2023/01/10 09:53:42;;;;;;;5.43;2.00;;;;;;;5.73;84.24;94519.94;5034464;28;20102;-62
2023/01/10 09:56:13;;;;;;;5.45;1.77;;;;;;;4.37;91.58;94513.22;5052980;28;20056;-62
2023/01/10 09:58:42;;;;;;;4.87;2.23;;;;;;;3.93;95.73;94524.41;5052675;28;20090;-62
2023/01/10 10:01:22;;;;;;;6.15;2.05;;;;;;;3.65;97.39;94524.63;5052727;28;20048;-62
2023/01/10 10:04:04;;;;;;;5.13;1.90;;;;;;;3.45;98.40;94525.75;5053280;28;20056;-62
2023/01/10 10:06:33;;;;;;;6.78;1.85;;;;;;;3.30;100.00;94521.91;5052203;28;20319;-63
2023/01/10 10:09:00;;;;;;;6.03;1.80;;;;;;;2.98;99.51;94525.50;5053128;28;20150;-62
2023/01/10 10:11:55;;;;;;;5.97;1.63;;;;;;;3.06;100.00;94525.66;5051662;28;20118;-62
2023/01/10 10:14:22;;;;;;;7.13;2.00;;;;;;;3.19;100.00;94533.31;5051938;28;20055;-62
2023/01/10 10:17:10;;;;;;;4.68;1.73;;;;;;;3.23;100.00;94533.41;5052773;28;20045;-61
2023/01/10 10:20:11;;;;;;;5.70;1.73;;;;;;;2.94;100.00;94540.91;5041242;28;20045;-61
2023/01/10 10:22:40;;;;;;;5.13;1.70;;;;;;;3.04;100.00;94544.19;5051919;28;20842;-62
2023/01/10 10:25:10;;;;;;;5.17;1.90;;;;;;;3.07;100.00;94546.22;5052322;28;20444;-62
2023/01/10 10:28:06;;;;;;;5.57;1.88;;;;;;;2.99;100.00;94537.13;5039191;28;20045;-61
2023/01/10 10:30:32;;;;;;;5.80;1.70;;;;;;;3.33;100.00;94529.38;5051607;28;20811;-62
2023/01/10 10:33:33;;;;;;;5.43;1.75;;;;;;;3.16;100.00;94539.47;5052155;28;20668;-62
2023/01/10 10:36:11;;;;;;;6.15;1.80;;;;;;;3.30;99.66;94538.19;5051601;28;21153;-62
2023/01/10 10:38:42;;;;;;;6.10;1.70;;;;;;;3.39;98.54;94536.09;5051540;28;20577;-62
2023/01/10 10:41:16;;;;;;;5.53;1.73;;;;;;;3.11;100.00;94534.31;5051410;28;20060;-62
2023/01/10 10:43:46;;;;;;;4.65;1.60;;;;;;;2.93;100.00;94528.47;5034831;28;20045;-62
2023/01/10 10:46:18;;;;;;;5.40;1.60;;;;;;;3.01;100.00;94518.56;5051569;28;20040;-62
2023/01/10 10:48:53;;;;;;;6.00;1.58;;;;;;;3.59;97.25;94520.63;5052029;28;20421;-63
2023/01/10 10:51:52;;;;;;;5.07;1.60;;;;;;;4.33;90.43;94517.03;5051491;28;20102;-62
2023/01/10 10:54:19;;;;;;;5.85;1.50;;;;;;;4.08;90.41;94521.97;5043136;28;20412;-62
2023/01/10 10:56:46;;;;;;;5.68;1.65;;;;;;;3.96;91.99;94531.06;5052038;28;20400;-62
2023/01/10 10:59:17;;;;;;;6.07;1.58;;;;;;;3.86;91.95;94524.25;5051217;28;20051;-62
2023/01/10 11:01:49;;;;;;;5.65;1.60;;;;;;;3.48;93.35;94525.84;5052248;28;20405;-62
2023/01/10 11:04:20;;;;;;;5.13;1.60;;;;;;;3.54;94.80;94526.31;5051392;28;20044;-62
2023/01/10 11:06:48;;;;;;;5.65;1.65;;;;;;;3.36;94.90;94537.59;5051771;28;20515;-62
2023/01/10 11:09:26;;;;;;;3.72;1.67;;;;;;;3.90;94.74;94538.69;5036708;28;20040;-62
2023/01/10 11:11:55;;;;;;;5.05;1.50;;;;;;;3.83;92.78;94537.78;5051879;28;20106;-62
2023/01/10 11:14:46;;;;;;;3.63;1.63;;;;;;;3.40;94.22;94535.75;5051427;28;20045;-62
2023/01/10 11:17:18;;;;;;;5.50;1.40;;;;;;;4.06;94.89;94533.19;5050913;28;20049;-62
2023/01/10 11:20:05;;;;;;;4.75;1.40;;;;;;;5.03;87.68;94515.84;5051834;28;20125;-62
2023/01/10 11:22:45;;;;;;;4.47;1.90;;;;;;;6.86;79.19;94520.00;5050829;28;20071;-63
2023/01/10 11:25:20;;;;;;;4.43;1.40;;;;;;;5.59;77.01;94517.03;5051283;28;20439;-63
2023/01/10 11:27:53;;;;;;;5.10;1.35;;;;;;;4.94;79.54;94513.38;5051175;28;20042;-63
2023/01/10 11:30:22;;;;;;;5.13;1.77;;;;;;;4.57;82.80;94510.44;5051072;28;20418;-63
2023/01/10 11:33:11;;;;;;;4.70;1.35;;;;;;;4.75;82.76;94511.53;5050966;28;20420;-63
2023/01/10 11:35:40;;;;;;;7.50;2.22;;;;;;;4.76;81.65;94515.03;5050094;28;20413;-63
2023/01/10 11:38:16;;;;;;;6.53;1.20;;;;;;;4.53;78.58;94510.38;5050567;28;20447;-63
2023/01/10 11:40:59;;;;;;;5.88;1.15;;;;;;;5.02;76.59;94514.28;5051238;28;20045;-63
2023/01/10 11:43:38;;;;;;;3.10;1.00;;;;;;;4.87;75.67;94501.59;5051009;28;20041;-63
2023/01/10 11:46:16;;;;;;;3.80;1.25;;;;;;;4.72;75.25;94506.03;5050822;28;20483;-62
2023/01/10 11:49:05;;;;;;;3.13;1.30;;;;;;;4.86;76.94;94505.47;5051255;28;20052;-63
2023/01/10 11:51:39;;;;;;;2.83;0.70;;;;;;;4.22;78.14;94499.72;5021158;28;20167;-63
2023/01/10 11:54:12;;;;;;;4.38;0.93;;;;;;;4.45;79.13;94503.25;5050007;28;20029;-62
2023/01/10 11:56:40;;;;;;;3.33;1.10;;;;;;;5.02;76.45;94491.75;5050870;28;20071;-62
2023/01/10 11:59:15;;;;;;;3.63;1.00;;;;;;;5.96;73.49;94484.47;5050441;28;20045;-62